sensor_id;sensor_type;location;lat;lon;timestamp;P1;durP1;ratioP1;P2;durP2;ratioP2
46653;SDS011;38960;51.074;17.004;2023-02-10T00:01:12;19.97;;;11.67;;
46653;SDS011;38960;51.074;17.004;2023-02-10T00:03:41;22.77;;;12.53;;
46653;SDS011;38960;51.074;17.004;2023-02-10T00:06:07;21.97;;;11.60;;
46653;SDS011;38960;51.074;17.004;2023-02-10T00:08:34;21.77;;;12.37;;
46653;SDS011;38960;51.074;17.004;2023-02-10T00:11:02;20.87;;;11.87;;
46653;SDS011;38960;51.074;17.004;2023-02-10T00:13:29;19.67;;;11.33;;
46653;SDS011;38960;51.074;17.004;2023-02-10T00:15:59;20.33;;;11.70;;
46653;SDS011;38960;51.074;17.004;2023-02-10T00:18:26;18.27;;;11.73;;
46653;SDS011;38960;51.074;17.004;2023-02-10T00:20:52;20.07;;;11.77;;
46653;SDS011;38960;51.074;17.004;2023-02-10T00:23:18;20.30;;;11.10;;
46653;SDS011;38960;51.074;17.004;2023-02-10T00:25:43;19.73;;;11.97;;
46653;SDS011;38960;51.074;17.004;2023-02-10T00:28:09;21.23;;;11.93;;
46653;SDS011;38960;51.074;17.004;2023-02-10T00:30:35;27.60;;;11.83;;
46653;SDS011;38960;51.074;17.004;2023-02-10T00:33:01;23.77;;;12.33;;
46653;SDS011;38960;51.074;17.004;2023-02-10T00:35:27;19.10;;;12.33;;
46653;SDS011;38960;51.074;17.004;2023-02-10T00:37:52;20.57;;;12.63;;
46653;SDS011;38960;51.074;17.004;2023-02-10T00:40:18;22.73;;;13.10;;
46653;SDS011;38960;51.074;17.004;2023-02-10T00:42:44;20.83;;;12.07;;
46653;SDS011;38960;51.074;17.004;2023-02-10T00:45:10;20.83;;;11.47;;
46653;SDS011;38960;51.074;17.004;2023-02-10T00:47:35;18.20;;;10.97;;
46653;SDS011;38960;51.074;17.004;2023-02-10T00:50:01;21.03;;;11.20;;
46653;SDS011;38960;51.074;17.004;2023-02-10T00:52:27;20.83;;;11.67;;
46653;SDS011;38960;51.074;17.004;2023-02-10T00:54:52;22.43;;;13.20;;
46653;SDS011;38960;51.074;17.004;2023-02-10T00:57:18;20.33;;;12.33;;
46653;SDS011;38960;51.074;17.004;2023-02-10T00:59:43;15.87;;;10.50;;
46653;SDS011;38960;51.074;17.004;2023-02-10T01:02:09;18.17;;;11.20;;
46653;SDS011;38960;51.074;17.004;2023-02-10T01:04:35;20.90;;;10.53;;
46653;SDS011;38960;51.074;17.004;2023-02-10T01:07:00;19.93;;;11.93;;
46653;SDS011;38960;51.074;17.004;2023-02-10T01:09:26;20.27;;;11.53;;
46653;SDS011;38960;51.074;17.004;2023-02-10T01:11:52;24.70;;;12.37;;
46653;SDS011;38960;51.074;17.004;2023-02-10T01:14:17;19.97;;;11.83;;
46653;SDS011;38960;51.074;17.004;2023-02-10T01:16:43;17.97;;;11.27;;
46653;SDS011;38960;51.074;17.004;2023-02-10T01:19:08;20.40;;;12.17;;
46653;SDS011;38960;51.074;17.004;2023-02-10T01:21:34;23.03;;;12.97;;
46653;SDS011;38960;51.074;17.004;2023-02-10T01:24:02;23.23;;;12.47;;
46653;SDS011;38960;51.074;17.004;2023-02-10T01:26:30;24.37;;;14.57;;
46653;SDS011;38960;51.074;17.004;2023-02-10T01:28:56;21.93;;;12.43;;
46653;SDS011;38960;51.074;17.004;2023-02-10T01:31:22;23.07;;;12.03;;
46653;SDS011;38960;51.074;17.004;2023-02-10T01:33:52;22.90;;;12.57;;
46653;SDS011;38960;51.074;17.004;2023-02-10T01:36:19;18.90;;;11.90;;
46653;SDS011;38960;51.074;17.004;2023-02-10T01:38:46;21.87;;;12.37;;
46653;SDS011;38960;51.074;17.004;2023-02-10T01:41:13;23.97;;;13.03;;
46653;SDS011;38960;51.074;17.004;2023-02-10T01:46:43;19.13;;;11.00;;
46653;SDS011;38960;51.074;17.004;2023-02-10T01:49:09;19.23;;;11.97;;
46653;SDS011;38960;51.074;17.004;2023-02-10T01:51:38;20.77;;;11.83;;
46653;SDS011;38960;51.074;17.004;2023-02-10T01:54:08;23.67;;;12.23;;
46653;SDS011;38960;51.074;17.004;2023-02-10T01:56:38;19.27;;;11.07;;
46653;SDS011;38960;51.074;17.004;2023-02-10T01:59:04;19.00;;;11.30;;
46653;SDS011;38960;51.074;17.004;2023-02-10T02:01:30;19.93;;;11.80;;
46653;SDS011;38960;51.074;17.004;2023-02-10T02:03:56;17.67;;;10.93;;
46653;SDS011;38960;51.074;17.004;2023-02-10T02:06:22;18.00;;;11.37;;
46653;SDS011;38960;51.074;17.004;2023-02-10T02:08:48;18.30;;;11.50;;
46653;SDS011;38960;51.074;17.004;2023-02-10T02:11:29;16.57;;;10.33;;
46653;SDS011;38960;51.074;17.004;2023-02-10T02:14:56;19.57;;;11.57;;
46653;SDS011;38960;51.074;17.004;2023-02-10T02:17:46;19.63;;;11.50;;
46653;SDS011;38960;51.074;17.004;2023-02-10T02:20:10;19.33;;;11.00;;
46653;SDS011;38960;51.074;17.004;2023-02-10T02:37:16;18.33;;;10.97;;
46653;SDS011;38960;51.074;17.004;2023-02-10T02:39:42;18.53;;;11.13;;
46653;SDS011;38960;51.074;17.004;2023-02-10T02:44:34;18.73;;;11.70;;
46653;SDS011;38960;51.074;17.004;2023-02-10T02:47:01;17.53;;;10.67;;
46653;SDS011;38960;51.074;17.004;2023-02-10T02:55:42;18.90;;;11.20;;
46653;SDS011;38960;51.074;17.004;2023-02-10T02:58:31;21.60;;;11.17;;
46653;SDS011;38960;51.074;17.004;2023-02-10T03:01:09;19.90;;;11.50;;
46653;SDS011;38960;51.074;17.004;2023-02-10T03:03:40;20.03;;;11.90;;
46653;SDS011;38960;51.074;17.004;2023-02-10T03:06:06;17.87;;;10.90;;
46653;SDS011;38960;51.074;17.004;2023-02-10T03:08:32;23.07;;;11.87;;
46653;SDS011;38960;51.074;17.004;2023-02-10T03:10:59;18.13;;;11.03;;
46653;SDS011;38960;51.074;17.004;2023-02-10T03:13:25;18.80;;;11.50;;
46653;SDS011;38960;51.074;17.004;2023-02-10T03:15:50;18.87;;;11.43;;
46653;SDS011;38960;51.074;17.004;2023-02-10T03:18:16;21.00;;;11.47;;
46653;SDS011;38960;51.074;17.004;2023-02-10T03:20:42;20.10;;;11.07;;
46653;SDS011;38960;51.074;17.004;2023-02-10T03:23:09;18.63;;;11.50;;
46653;SDS011;38960;51.074;17.004;2023-02-10T03:25:35;21.13;;;12.13;;
46653;SDS011;38960;51.074;17.004;2023-02-10T03:28:00;17.97;;;10.63;;
46653;SDS011;38960;51.074;17.004;2023-02-10T03:30:26;20.83;;;11.57;;
46653;SDS011;38960;51.074;17.004;2023-02-10T03:32:52;17.93;;;11.03;;
46653;SDS011;38960;51.074;17.004;2023-02-10T03:35:18;21.23;;;11.90;;
46653;SDS011;38960;51.074;17.004;2023-02-10T03:37:45;21.97;;;12.57;;
46653;SDS011;38960;51.074;17.004;2023-02-10T03:40:10;18.90;;;11.43;;
46653;SDS011;38960;51.074;17.004;2023-02-10T03:42:36;20.30;;;11.77;;
46653;SDS011;38960;51.074;17.004;2023-02-10T03:45:02;18.47;;;12.37;;
46653;SDS011;38960;51.074;17.004;2023-02-10T03:47:28;19.47;;;11.77;;
46653;SDS011;38960;51.074;17.004;2023-02-10T03:49:54;20.80;;;11.70;;
46653;SDS011;38960;51.074;17.004;2023-02-10T03:52:19;20.37;;;12.20;;
46653;SDS011;38960;51.074;17.004;2023-02-10T03:54:45;20.47;;;12.73;;
46653;SDS011;38960;51.074;17.004;2023-02-10T03:57:10;21.43;;;12.37;;
46653;SDS011;38960;51.074;17.004;2023-02-10T03:59:36;19.63;;;11.87;;
46653;SDS011;38960;51.074;17.004;2023-02-10T04:02:02;21.53;;;12.80;;
46653;SDS011;38960;51.074;17.004;2023-02-10T04:04:28;20.03;;;11.63;;
46653;SDS011;38960;51.074;17.004;2023-02-10T04:06:54;27.17;;;13.53;;
46653;SDS011;38960;51.074;17.004;2023-02-10T04:09:19;21.30;;;12.90;;
46653;SDS011;38960;51.074;17.004;2023-02-10T04:11:45;22.50;;;12.90;;
46653;SDS011;38960;51.074;17.004;2023-02-10T04:14:10;21.13;;;12.57;;
46653;SDS011;38960;51.074;17.004;2023-02-10T04:16:36;23.47;;;13.33;;
46653;SDS011;38960;51.074;17.004;2023-02-10T04:19:02;25.80;;;13.33;;
46653;SDS011;38960;51.074;17.004;2023-02-10T04:21:27;26.07;;;13.23;;
46653;SDS011;38960;51.074;17.004;2023-02-10T04:23:53;23.57;;;13.13;;
46653;SDS011;38960;51.074;17.004;2023-02-10T04:26:21;24.30;;;14.13;;
46653;SDS011;38960;51.074;17.004;2023-02-10T04:28:47;27.13;;;13.73;;
46653;SDS011;38960;51.074;17.004;2023-02-10T04:31:13;24.70;;;14.00;;
46653;SDS011;38960;51.074;17.004;2023-02-10T04:33:38;23.77;;;13.97;;
46653;SDS011;38960;51.074;17.004;2023-02-10T04:36:04;23.87;;;13.70;;
46653;SDS011;38960;51.074;17.004;2023-02-10T04:38:30;23.47;;;13.00;;
46653;SDS011;38960;51.074;17.004;2023-02-10T04:40:56;23.80;;;13.77;;
46653;SDS011;38960;51.074;17.004;2023-02-10T04:43:21;23.70;;;13.10;;
46653;SDS011;38960;51.074;17.004;2023-02-10T04:45:47;23.03;;;13.87;;
46653;SDS011;38960;51.074;17.004;2023-02-10T04:48:13;24.20;;;14.33;;
46653;SDS011;38960;51.074;17.004;2023-02-10T04:50:39;27.00;;;14.90;;
46653;SDS011;38960;51.074;17.004;2023-02-10T04:53:05;26.13;;;14.50;;
46653;SDS011;38960;51.074;17.004;2023-02-10T04:55:31;26.80;;;16.50;;
46653;SDS011;38960;51.074;17.004;2023-02-10T04:57:57;25.10;;;14.67;;
46653;SDS011;38960;51.074;17.004;2023-02-10T05:00:23;25.93;;;14.60;;
46653;SDS011;38960;51.074;17.004;2023-02-10T05:02:48;33.43;;;14.80;;
46653;SDS011;38960;51.074;17.004;2023-02-10T05:05:14;22.93;;;13.70;;
46653;SDS011;38960;51.074;17.004;2023-02-10T05:07:39;27.93;;;14.77;;
46653;SDS011;38960;51.074;17.004;2023-02-10T05:10:05;28.67;;;15.00;;
46653;SDS011;38960;51.074;17.004;2023-02-10T05:12:31;27.53;;;14.77;;
46653;SDS011;38960;51.074;17.004;2023-02-10T05:14:56;23.63;;;14.00;;
46653;SDS011;38960;51.074;17.004;2023-02-10T05:17:22;26.27;;;13.90;;
46653;SDS011;38960;51.074;17.004;2023-02-10T05:19:48;22.37;;;13.13;;
46653;SDS011;38960;51.074;17.004;2023-02-10T05:22:13;21.07;;;12.80;;
46653;SDS011;38960;51.074;17.004;2023-02-10T05:24:39;24.63;;;13.03;;
46653;SDS011;38960;51.074;17.004;2023-02-10T05:27:04;21.17;;;13.30;;
46653;SDS011;38960;51.074;17.004;2023-02-10T05:29:30;25.93;;;12.93;;
46653;SDS011;38960;51.074;17.004;2023-02-10T05:31:56;22.17;;;13.10;;
46653;SDS011;38960;51.074;17.004;2023-02-10T05:34:21;24.90;;;13.03;;
46653;SDS011;38960;51.074;17.004;2023-02-10T05:36:47;23.07;;;12.57;;
46653;SDS011;38960;51.074;17.004;2023-02-10T05:39:13;27.07;;;13.57;;
46653;SDS011;38960;51.074;17.004;2023-02-10T05:41:54;22.13;;;12.20;;
46653;SDS011;38960;51.074;17.004;2023-02-10T05:44:21;23.27;;;13.30;;
46653;SDS011;38960;51.074;17.004;2023-02-10T05:46:47;29.13;;;15.47;;
46653;SDS011;38960;51.074;17.004;2023-02-10T05:49:13;22.40;;;13.60;;
46653;SDS011;38960;51.074;17.004;2023-02-10T05:51:38;26.33;;;13.73;;
46653;SDS011;38960;51.074;17.004;2023-02-10T05:54:04;28.53;;;15.80;;
46653;SDS011;38960;51.074;17.004;2023-02-10T05:56:30;28.50;;;15.47;;
46653;SDS011;38960;51.074;17.004;2023-02-10T05:58:55;28.17;;;15.57;;
46653;SDS011;38960;51.074;17.004;2023-02-10T06:01:21;26.07;;;15.67;;
46653;SDS011;38960;51.074;17.004;2023-02-10T06:03:47;27.00;;;15.77;;
46653;SDS011;38960;51.074;17.004;2023-02-10T06:06:13;25.73;;;14.93;;
46653;SDS011;38960;51.074;17.004;2023-02-10T06:08:38;26.03;;;15.27;;
46653;SDS011;38960;51.074;17.004;2023-02-10T06:11:04;28.33;;;14.73;;
46653;SDS011;38960;51.074;17.004;2023-02-10T06:13:30;30.07;;;15.17;;
46653;SDS011;38960;51.074;17.004;2023-02-10T06:15:55;28.33;;;14.60;;
46653;SDS011;38960;51.074;17.004;2023-02-10T06:18:21;25.73;;;15.10;;
46653;SDS011;38960;51.074;17.004;2023-02-10T06:20:47;21.60;;;13.27;;
46653;SDS011;38960;51.074;17.004;2023-02-10T06:23:13;28.90;;;14.37;;
46653;SDS011;38960;51.074;17.004;2023-02-10T06:25:39;24.53;;;13.33;;
46653;SDS011;38960;51.074;17.004;2023-02-10T06:28:04;21.23;;;13.00;;
46653;SDS011;38960;51.074;17.004;2023-02-10T06:30:30;27.27;;;13.10;;
46653;SDS011;38960;51.074;17.004;2023-02-10T06:32:57;25.60;;;14.00;;
46653;SDS011;38960;51.074;17.004;2023-02-10T06:35:22;21.60;;;12.40;;
46653;SDS011;38960;51.074;17.004;2023-02-10T06:37:48;30.63;;;14.90;;
46653;SDS011;38960;51.074;17.004;2023-02-10T06:40:14;28.73;;;15.17;;
46653;SDS011;38960;51.074;17.004;2023-02-10T06:42:40;23.23;;;13.13;;
46653;SDS011;38960;51.074;17.004;2023-02-10T06:45:06;25.03;;;13.87;;
46653;SDS011;38960;51.074;17.004;2023-02-10T06:47:34;28.63;;;15.83;;
46653;SDS011;38960;51.074;17.004;2023-02-10T06:50:00;31.93;;;16.83;;
46653;SDS011;38960;51.074;17.004;2023-02-10T06:52:25;27.17;;;15.90;;
46653;SDS011;38960;51.074;17.004;2023-02-10T06:54:52;28.30;;;15.63;;
46653;SDS011;38960;51.074;17.004;2023-02-10T06:57:17;27.17;;;14.90;;
46653;SDS011;38960;51.074;17.004;2023-02-10T06:59:43;26.37;;;15.47;;
46653;SDS011;38960;51.074;17.004;2023-02-10T07:02:12;28.13;;;15.70;;
46653;SDS011;38960;51.074;17.004;2023-02-10T07:04:38;27.40;;;15.37;;
46653;SDS011;38960;51.074;17.004;2023-02-10T07:07:03;26.07;;;15.40;;
46653;SDS011;38960;51.074;17.004;2023-02-10T07:09:29;24.23;;;14.13;;
46653;SDS011;38960;51.074;17.004;2023-02-10T07:11:55;23.67;;;13.57;;
46653;SDS011;38960;51.074;17.004;2023-02-10T07:14:22;26.97;;;14.57;;
46653;SDS011;38960;51.074;17.004;2023-02-10T07:16:47;34.17;;;15.60;;
46653;SDS011;38960;51.074;17.004;2023-02-10T07:19:13;28.20;;;14.83;;
46653;SDS011;38960;51.074;17.004;2023-02-10T07:21:39;29.50;;;15.23;;
46653;SDS011;38960;51.074;17.004;2023-02-10T07:24:04;26.97;;;15.33;;
46653;SDS011;38960;51.074;17.004;2023-02-10T07:26:30;30.37;;;15.87;;
46653;SDS011;38960;51.074;17.004;2023-02-10T07:28:56;26.87;;;14.77;;
46653;SDS011;38960;51.074;17.004;2023-02-10T07:31:21;26.17;;;14.70;;
46653;SDS011;38960;51.074;17.004;2023-02-10T07:33:47;31.10;;;15.17;;
46653;SDS011;38960;51.074;17.004;2023-02-10T07:36:12;27.80;;;15.07;;
46653;SDS011;38960;51.074;17.004;2023-02-10T07:38:38;28.73;;;15.03;;
46653;SDS011;38960;51.074;17.004;2023-02-10T07:41:04;23.50;;;13.97;;
46653;SDS011;38960;51.074;17.004;2023-02-10T07:43:31;25.80;;;14.07;;
46653;SDS011;38960;51.074;17.004;2023-02-10T07:46:02;25.67;;;13.27;;
46653;SDS011;38960;51.074;17.004;2023-02-10T07:48:28;25.43;;;14.40;;
46653;SDS011;38960;51.074;17.004;2023-02-10T07:50:53;24.83;;;12.80;;
46653;SDS011;38960;51.074;17.004;2023-02-10T07:53:19;22.07;;;13.10;;
46653;SDS011;38960;51.074;17.004;2023-02-10T07:55:46;22.60;;;12.77;;
46653;SDS011;38960;51.074;17.004;2023-02-10T07:58:12;21.77;;;13.20;;
46653;SDS011;38960;51.074;17.004;2023-02-10T08:00:37;22.70;;;13.27;;
46653;SDS011;38960;51.074;17.004;2023-02-10T08:03:03;25.33;;;13.70;;
46653;SDS011;38960;51.074;17.004;2023-02-10T08:05:29;26.30;;;13.47;;
46653;SDS011;38960;51.074;17.004;2023-02-10T08:07:55;25.07;;;13.87;;
46653;SDS011;38960;51.074;17.004;2023-02-10T08:10:21;29.13;;;15.87;;
46653;SDS011;38960;51.074;17.004;2023-02-10T08:12:47;25.00;;;13.53;;
46653;SDS011;38960;51.074;17.004;2023-02-10T08:15:13;28.53;;;13.63;;
46653;SDS011;38960;51.074;17.004;2023-02-10T08:17:42;26.93;;;15.17;;
46653;SDS011;38960;51.074;17.004;2023-02-10T08:20:08;24.23;;;14.10;;
46653;SDS011;38960;51.074;17.004;2023-02-10T08:22:34;25.10;;;14.53;;
46653;SDS011;38960;51.074;17.004;2023-02-10T08:25:00;28.00;;;15.20;;
46653;SDS011;38960;51.074;17.004;2023-02-10T08:27:26;27.73;;;15.60;;
46653;SDS011;38960;51.074;17.004;2023-02-10T08:29:51;31.13;;;15.83;;
46653;SDS011;38960;51.074;17.004;2023-02-10T08:32:17;27.73;;;15.13;;
46653;SDS011;38960;51.074;17.004;2023-02-10T08:34:47;31.50;;;17.17;;
46653;SDS011;38960;51.074;17.004;2023-02-10T08:37:14;30.50;;;17.73;;
46653;SDS011;38960;51.074;17.004;2023-02-10T08:39:41;32.30;;;17.57;;
46653;SDS011;38960;51.074;17.004;2023-02-10T08:42:06;33.50;;;17.07;;
46653;SDS011;38960;51.074;17.004;2023-02-10T08:44:32;31.87;;;18.50;;
46653;SDS011;38960;51.074;17.004;2023-02-10T08:46:58;33.87;;;19.43;;
46653;SDS011;38960;51.074;17.004;2023-02-10T08:49:23;33.43;;;17.23;;
46653;SDS011;38960;51.074;17.004;2023-02-10T08:51:53;39.53;;;17.63;;
46653;SDS011;38960;51.074;17.004;2023-02-10T08:54:19;32.10;;;18.07;;
46653;SDS011;38960;51.074;17.004;2023-02-10T08:56:45;34.63;;;18.67;;
46653;SDS011;38960;51.074;17.004;2023-02-10T08:59:11;29.83;;;17.73;;
46653;SDS011;38960;51.074;17.004;2023-02-10T09:01:37;35.07;;;18.63;;
46653;SDS011;38960;51.074;17.004;2023-02-10T09:04:02;33.77;;;18.43;;
46653;SDS011;38960;51.074;17.004;2023-02-10T09:06:32;34.20;;;18.57;;
46653;SDS011;38960;51.074;17.004;2023-02-10T09:09:05;35.23;;;19.13;;
46653;SDS011;38960;51.074;17.004;2023-02-10T09:11:31;32.70;;;17.47;;
46653;SDS011;38960;51.074;17.004;2023-02-10T09:13:56;32.27;;;17.80;;
46653;SDS011;38960;51.074;17.004;2023-02-10T09:16:22;31.10;;;17.73;;
46653;SDS011;38960;51.074;17.004;2023-02-10T09:18:48;31.20;;;17.87;;
46653;SDS011;38960;51.074;17.004;2023-02-10T09:21:13;31.13;;;18.07;;
46653;SDS011;38960;51.074;17.004;2023-02-10T09:23:39;34.40;;;18.37;;
46653;SDS011;38960;51.074;17.004;2023-02-10T09:26:05;35.00;;;18.10;;
46653;SDS011;38960;51.074;17.004;2023-02-10T09:28:30;28.30;;;16.70;;
46653;SDS011;38960;51.074;17.004;2023-02-10T09:30:56;32.67;;;17.60;;
46653;SDS011;38960;51.074;17.004;2023-02-10T09:33:22;31.77;;;16.40;;
46653;SDS011;38960;51.074;17.004;2023-02-10T09:35:47;28.80;;;16.67;;
46653;SDS011;38960;51.074;17.004;2023-02-10T09:38:13;26.47;;;16.13;;
46653;SDS011;38960;51.074;17.004;2023-02-10T09:52:02;26.83;;;15.17;;
46653;SDS011;38960;51.074;17.004;2023-02-10T09:54:35;31.83;;;16.90;;
46653;SDS011;38960;51.074;17.004;2023-02-10T09:57:05;32.17;;;16.97;;
46653;SDS011;38960;51.074;17.004;2023-02-10T09:59:36;29.37;;;16.47;;
46653;SDS011;38960;51.074;17.004;2023-02-10T10:02:08;26.13;;;15.73;;
46653;SDS011;38960;51.074;17.004;2023-02-10T10:04:36;30.20;;;17.53;;
46653;SDS011;38960;51.074;17.004;2023-02-10T10:09:40;28.47;;;17.13;;
46653;SDS011;38960;51.074;17.004;2023-02-10T10:12:11;32.87;;;18.37;;
46653;SDS011;38960;51.074;17.004;2023-02-10T10:14:40;30.63;;;17.43;;
46653;SDS011;38960;51.074;17.004;2023-02-10T10:33:00;27.67;;;14.77;;
46653;SDS011;38960;51.074;17.004;2023-02-10T10:35:32;27.57;;;14.60;;
46653;SDS011;38960;51.074;17.004;2023-02-10T10:38:15;28.93;;;15.63;;
46653;SDS011;38960;51.074;17.004;2023-02-10T10:40:45;35.77;;;15.93;;
46653;SDS011;38960;51.074;17.004;2023-02-10T10:43:13;26.40;;;16.03;;
46653;SDS011;38960;51.074;17.004;2023-02-10T10:45:46;33.13;;;16.87;;
46653;SDS011;38960;51.074;17.004;2023-02-10T10:48:23;33.03;;;17.70;;
46653;SDS011;38960;51.074;17.004;2023-02-10T10:50:55;35.93;;;17.90;;
46653;SDS011;38960;51.074;17.004;2023-02-10T10:53:34;32.93;;;18.20;;
46653;SDS011;38960;51.074;17.004;2023-02-10T10:56:04;33.00;;;17.20;;
46653;SDS011;38960;51.074;17.004;2023-02-10T10:58:55;38.28;;;19.30;;
46653;SDS011;38960;51.074;17.004;2023-02-10T11:01:41;37.87;;;18.83;;
46653;SDS011;38960;51.074;17.004;2023-02-10T11:04:12;33.80;;;19.50;;
46653;SDS011;38960;51.074;17.004;2023-02-10T11:06:40;32.42;;;18.75;;
46653;SDS011;38960;51.074;17.004;2023-02-10T11:09:14;34.13;;;18.77;;
46653;SDS011;38960;51.074;17.004;2023-02-10T11:11:47;32.87;;;18.33;;
46653;SDS011;38960;51.074;17.004;2023-02-10T11:14:17;33.10;;;18.93;;
46653;SDS011;38960;51.074;17.004;2023-02-10T11:16:48;33.13;;;18.80;;
46653;SDS011;38960;51.074;17.004;2023-02-10T11:19:25;32.87;;;18.07;;
46653;SDS011;38960;51.074;17.004;2023-02-10T11:21:55;38.83;;;19.87;;
46653;SDS011;38960;51.074;17.004;2023-02-10T11:24:36;30.63;;;18.60;;
46653;SDS011;38960;51.074;17.004;2023-02-10T11:27:18;33.00;;;18.23;;
46653;SDS011;38960;51.074;17.004;2023-02-10T11:29:48;35.70;;;18.37;;
46653;SDS011;38960;51.074;17.004;2023-02-10T11:32:28;34.33;;;18.50;;
46653;SDS011;38960;51.074;17.004;2023-02-10T11:34:55;31.73;;;18.85;;
46653;SDS011;38960;51.074;17.004;2023-02-10T11:37:25;38.63;;;19.90;;
46653;SDS011;38960;51.074;17.004;2023-02-10T11:39:52;39.77;;;19.73;;
46653;SDS011;38960;51.074;17.004;2023-02-10T11:42:30;33.53;;;19.50;;
46653;SDS011;38960;51.074;17.004;2023-02-10T11:47:36;35.00;;;19.40;;
46653;SDS011;38960;51.074;17.004;2023-02-10T11:50:01;34.60;;;18.87;;
46653;SDS011;38960;51.074;17.004;2023-02-10T11:52:29;35.17;;;20.23;;
46653;SDS011;38960;51.074;17.004;2023-02-10T11:54:55;34.13;;;19.03;;
46653;SDS011;38960;51.074;17.004;2023-02-10T11:57:25;29.53;;;17.67;;
46653;SDS011;38960;51.074;17.004;2023-02-10T12:00:53;33.67;;;18.40;;
46653;SDS011;38960;51.074;17.004;2023-02-10T12:03:33;35.17;;;17.63;;
46653;SDS011;38960;51.074;17.004;2023-02-10T12:20:37;35.00;;;16.73;;
46653;SDS011;38960;51.074;17.004;2023-02-10T12:42:40;31.97;;;15.87;;
46653;SDS011;38960;51.074;17.004;2023-02-10T12:50:58;30.03;;;15.67;;
46653;SDS011;38960;51.074;17.004;2023-02-10T12:53:47;28.77;;;14.43;;
46653;SDS011;38960;51.074;17.004;2023-02-10T12:58:45;29.60;;;15.03;;
46653;SDS011;38960;51.074;17.004;2023-02-10T13:01:15;29.70;;;14.47;;
46653;SDS011;38960;51.074;17.004;2023-02-10T13:03:46;33.47;;;14.98;;
46653;SDS011;38960;51.074;17.004;2023-02-10T13:09:03;28.37;;;15.67;;
46653;SDS011;38960;51.074;17.004;2023-02-10T13:11:34;32.60;;;15.07;;
46653;SDS011;38960;51.074;17.004;2023-02-10T13:14:05;27.40;;;14.57;;
46653;SDS011;38960;51.074;17.004;2023-02-10T13:16:36;28.08;;;14.43;;
46653;SDS011;38960;51.074;17.004;2023-02-10T13:22:00;26.60;;;15.10;;
46653;SDS011;38960;51.074;17.004;2023-02-10T13:24:44;25.87;;;13.00;;
46653;SDS011;38960;51.074;17.004;2023-02-10T13:35:25;26.07;;;11.53;;
46653;SDS011;38960;51.074;17.004;2023-02-10T13:37:52;30.33;;;11.80;;
46653;SDS011;38960;51.074;17.004;2023-02-10T13:40:24;26.00;;;11.83;;
46653;SDS011;38960;51.074;17.004;2023-02-10T13:43:01;29.60;;;11.90;;
46653;SDS011;38960;51.074;17.004;2023-02-10T13:45:29;28.98;;;10.55;;
46653;SDS011;38960;51.074;17.004;2023-02-10T13:51:04;30.47;;;11.37;;
46653;SDS011;38960;51.074;17.004;2023-02-10T13:56:14;24.13;;;11.70;;
46653;SDS011;38960;51.074;17.004;2023-02-10T13:58:53;19.00;;;10.40;;
46653;SDS011;38960;51.074;17.004;2023-02-10T14:06:45;19.90;;;10.33;;
46653;SDS011;38960;51.074;17.004;2023-02-10T14:09:59;25.20;;;10.70;;
46653;SDS011;38960;51.074;17.004;2023-02-10T14:12:03;22.30;;;10.43;;
46653;SDS011;38960;51.074;17.004;2023-02-10T14:14:34;24.13;;;10.53;;
46653;SDS011;38960;51.074;17.004;2023-02-10T14:17:06;24.37;;;10.67;;
46653;SDS011;38960;51.074;17.004;2023-02-10T14:19:42;23.37;;;10.60;;
46653;SDS011;38960;51.074;17.004;2023-02-10T14:22:31;29.50;;;11.23;;
46653;SDS011;38960;51.074;17.004;2023-02-10T14:27:51;27.07;;;11.27;;
46653;SDS011;38960;51.074;17.004;2023-02-10T14:30:23;21.07;;;10.93;;
46653;SDS011;38960;51.074;17.004;2023-02-10T14:32:53;22.10;;;10.70;;
46653;SDS011;38960;51.074;17.004;2023-02-10T14:35:24;21.03;;;12.00;;
46653;SDS011;38960;51.074;17.004;2023-02-10T14:37:53;23.23;;;11.17;;
46653;SDS011;38960;51.074;17.004;2023-02-10T14:40:21;24.67;;;11.73;;
46653;SDS011;38960;51.074;17.004;2023-02-10T14:42:47;24.97;;;11.40;;
46653;SDS011;38960;51.074;17.004;2023-02-10T14:45:23;31.87;;;13.23;;
46653;SDS011;38960;51.074;17.004;2023-02-10T14:47:54;28.90;;;11.90;;
46653;SDS011;38960;51.074;17.004;2023-02-10T14:50:25;32.17;;;13.43;;
46653;SDS011;38960;51.074;17.004;2023-02-10T14:53:02;28.05;;;12.30;;
46653;SDS011;38960;51.074;17.004;2023-02-10T14:55:30;29.30;;;12.53;;
46653;SDS011;38960;51.074;17.004;2023-02-10T15:00:35;30.73;;;12.98;;
46653;SDS011;38960;51.074;17.004;2023-02-10T15:03:02;22.67;;;11.20;;
46653;SDS011;38960;51.074;17.004;2023-02-10T15:05:31;21.93;;;10.37;;
46653;SDS011;38960;51.074;17.004;2023-02-10T15:07:59;27.13;;;12.13;;
46653;SDS011;38960;51.074;17.004;2023-02-10T15:10:27;27.27;;;12.67;;
46653;SDS011;38960;51.074;17.004;2023-02-10T15:12:55;26.20;;;12.73;;
46653;SDS011;38960;51.074;17.004;2023-02-10T15:17:50;24.37;;;12.17;;
46653;SDS011;38960;51.074;17.004;2023-02-10T15:20:25;24.20;;;11.57;;
46653;SDS011;38960;51.074;17.004;2023-02-10T15:25:28;27.27;;;12.32;;
46653;SDS011;38960;51.074;17.004;2023-02-10T15:33:27;19.70;;;11.27;;
46653;SDS011;38960;51.074;17.004;2023-02-10T15:36:54;20.20;;;11.03;;
46653;SDS011;38960;51.074;17.004;2023-02-10T15:43:57;22.17;;;10.83;;
46653;SDS011;38960;51.074;17.004;2023-02-10T15:46:24;21.47;;;9.60;;
46653;SDS011;38960;51.074;17.004;2023-02-10T15:48:50;22.20;;;9.30;;
46653;SDS011;38960;51.074;17.004;2023-02-10T15:51:21;17.90;;;9.17;;
46653;SDS011;38960;51.074;17.004;2023-02-10T15:53:52;15.33;;;7.53;;
46653;SDS011;38960;51.074;17.004;2023-02-10T15:56:20;14.53;;;7.50;;
46653;SDS011;38960;51.074;17.004;2023-02-10T15:58:47;18.03;;;8.00;;
46653;SDS011;38960;51.074;17.004;2023-02-10T16:01:13;16.67;;;7.93;;
46653;SDS011;38960;51.074;17.004;2023-02-10T16:03:39;14.07;;;7.17;;
46653;SDS011;38960;51.074;17.004;2023-02-10T16:06:04;14.53;;;7.53;;
46653;SDS011;38960;51.074;17.004;2023-02-10T16:08:30;16.80;;;8.13;;
46653;SDS011;38960;51.074;17.004;2023-02-10T16:10:56;17.10;;;7.33;;
46653;SDS011;38960;51.074;17.004;2023-02-10T16:13:22;16.50;;;7.13;;
46653;SDS011;38960;51.074;17.004;2023-02-10T16:15:48;17.93;;;7.50;;
46653;SDS011;38960;51.074;17.004;2023-02-10T16:18:18;12.67;;;7.30;;
46653;SDS011;38960;51.074;17.004;2023-02-10T16:20:45;16.50;;;7.83;;
46653;SDS011;38960;51.074;17.004;2023-02-10T16:23:15;14.13;;;7.00;;
46653;SDS011;38960;51.074;17.004;2023-02-10T16:25:42;16.60;;;7.88;;
46653;SDS011;38960;51.074;17.004;2023-02-10T16:28:09;16.30;;;8.97;;
46653;SDS011;38960;51.074;17.004;2023-02-10T16:30:38;22.60;;;9.93;;
46653;SDS011;38960;51.074;17.004;2023-02-10T16:33:03;13.70;;;7.83;;
46653;SDS011;38960;51.074;17.004;2023-02-10T16:35:29;15.30;;;8.00;;
46653;SDS011;38960;51.074;17.004;2023-02-10T16:37:55;14.47;;;6.83;;
46653;SDS011;38960;51.074;17.004;2023-02-10T16:40:31;18.83;;;8.80;;
46653;SDS011;38960;51.074;17.004;2023-02-10T16:42:59;15.03;;;7.60;;